Time;durP1;ratioP1;P1;durP2;ratioP2;P2;SDS_P1;SDS_P2;PMS_P1;PMS_P2;Temp;Humidity;BMP_temperature;BMP_pressure;BME280_temperature;BME280_humidity;BME280_pressure;Samples;Min_cycle;Max_cycle;Signal;HPM_P1;HPM_P2
2022/11/30 00:00:16;;;;;;;0.10;0.10;;;3.40;99.90;;;;;;4988878;28;20067;-74
2022/11/30 00:02:42;;;;;;;0.22;0.22;;;3.40;99.90;;;;;;4972001;28;20157;-74
2022/11/30 00:05:08;;;;;;;2.92;2.83;;;3.40;99.90;;;;;;4971326;28;20034;-74
2022/11/30 00:07:37;;;;;;;0.30;0.30;;;3.40;99.90;;;;;;4989651;28;20046;-74
2022/11/30 00:10:04;;;;;;;0.57;0.57;;;3.40;99.90;;;;;;4989203;28;20045;-74
2022/11/30 00:12:30;;;;;;;0.13;0.13;;;3.30;99.90;;;;;;4966859;28;20397;-74
2022/11/30 00:14:56;;;;;;;0.10;0.10;;;3.40;99.90;;;;;;4965950;28;20090;-74
2022/11/30 00:17:23;;;;;;;0.77;0.77;;;3.40;99.90;;;;;;4982164;28;20252;-74
2022/11/30 00:19:48;;;;;;;0.00;0.00;;;3.80;99.90;;;;;;4982779;28;20101;-74
2022/11/30 00:22:14;;;;;;;0.00;0.00;;;3.30;99.90;;;;;;4982632;28;20058;-74
2022/11/30 00:24:40;;;;;;;5.10;4.88;;;3.40;99.90;;;;;;4981818;28;20398;-74
2022/11/30 00:27:05;;;;;;;0.05;0.05;;;3.40;99.90;;;;;;4982950;28;20056;-73
2022/11/30 00:29:31;;;;;;;12.13;10.95;;;3.40;99.90;;;;;;4982872;28;20117;-74
2022/11/30 00:31:57;;;;;;;0.10;0.10;;;3.50;99.90;;;;;;4981950;28;20611;-74
2022/11/30 00:34:23;;;;;;;0.00;0.00;;;3.50;99.90;;;;;;4982729;28;20408;-75
2022/11/30 00:36:49;;;;;;;10.18;8.68;;;;;;;;;;4981932;28;20052;-74
2022/11/30 00:39:15;;;;;;;1.23;1.23;;;;;;;;;;4965191;28;20038;-75
2022/11/30 00:41:41;;;;;;;0.05;0.05;;;;;;;;;;4981871;28;20030;-75
2022/11/30 00:44:07;;;;;;;2.70;2.50;;;3.60;99.90;;;;;;4981707;28;20275;-74
2022/11/30 00:46:33;;;;;;;0.25;0.25;;;3.70;99.90;;;;;;4981618;28;20441;-74
2022/11/30 00:48:58;;;;;;;0.10;0.10;;;3.70;99.90;;;;;;4982314;28;20109;-74
2022/11/30 00:51:24;;;;;;;0.13;0.13;;;3.70;99.90;;;;;;4981704;28;20029;-75
2022/11/30 00:53:50;;;;;;;1.08;1.05;;;3.70;99.90;;;;;;4981855;28;20500;-74
2022/11/30 00:56:16;;;;;;;0.10;0.10;;;3.60;99.90;;;;;;4964278;28;20048;-75
2022/11/30 00:58:42;;;;;;;1.13;1.13;;;3.60;99.90;;;;;;4984729;28;20030;-74
2022/11/30 01:01:08;;;;;;;4.53;4.18;;;3.70;99.90;;;;;;4982098;28;20101;-74
2022/11/30 01:03:35;;;;;;;0.05;0.05;;;3.60;99.90;;;;;;4981498;28;20651;-74
2022/11/30 01:06:02;;;;;;;3.42;3.33;;;3.70;99.90;;;;;;4982022;28;20046;-74
2022/11/30 01:08:28;;;;;;;2.10;1.95;;;3.70;99.90;;;;;;4981701;28;20037;-74
2022/11/30 01:10:56;;;;;;;4.50;4.22;;;3.70;99.90;;;;;;4981616;28;20026;-74
2022/11/30 01:13:22;;;;;;;2.13;2.05;;;3.70;99.90;;;;;;4981658;28;20026;-74
2022/11/30 01:15:48;;;;;;;0.10;0.10;;;3.70;99.90;;;;;;4981479;28;20513;-74
2022/11/30 01:18:14;;;;;;;0.10;0.10;;;3.70;99.90;;;;;;4964064;28;20052;-74
2022/11/30 01:20:41;;;;;;;2.83;2.72;;;3.80;99.90;;;;;;4982948;28;20519;-75
2022/11/30 01:23:08;;;;;;;0.10;0.10;;;3.70;99.90;;;;;;4982235;28;20026;-74
2022/11/30 01:25:34;;;;;;;0.20;0.20;;;3.70;99.90;;;;;;4964819;28;20027;-74
2022/11/30 01:27:59;;;;;;;3.20;3.10;;;3.70;99.90;;;;;;4981794;28;20532;-75
2022/11/30 01:30:25;;;;;;;0.00;0.00;;;3.70;99.90;;;;;;4981746;28;20525;-74
2022/11/30 01:32:51;;;;;;;0.00;0.00;;;3.70;99.90;;;;;;4982129;28;20034;-75
2022/11/30 01:35:17;;;;;;;0.10;0.10;;;3.70;99.90;;;;;;4981980;28;20030;-74
2022/11/30 01:37:42;;;;;;;0.30;0.30;;;3.70;99.90;;;;;;4964938;28;20054;-74
2022/11/30 01:40:10;;;;;;;1.35;1.27;;;3.70;99.90;;;;;;4985828;28;20323;-74
2022/11/30 01:42:36;;;;;;;0.22;0.22;;;3.60;99.90;;;;;;4988977;28;20030;-75
2022/11/30 01:45:05;;;;;;;0.20;0.20;;;3.60;99.90;;;;;;4990306;28;20026;-74
2022/11/30 01:47:38;;;;;;;8.73;7.93;;;3.60;99.90;;;;;;4988361;28;20194;-74
2022/11/30 01:50:03;;;;;;;0.10;0.10;;;3.50;99.90;;;;;;4987017;28;20232;-75
2022/11/30 01:52:47;;;;;;;0.10;0.10;;;3.50;99.90;;;;;;4963487;28;20030;-74
2022/11/30 01:55:23;;;;;;;3.53;3.42;;;3.40;99.90;;;;;;4980689;28;20105;-74
2022/11/30 01:58:08;;;;;;;3.13;3.03;;;3.40;99.90;;;;;;4981328;28;20037;-74
2022/11/30 02:00:34;;;;;;;1.17;1.17;;;3.40;99.90;;;;;;4978913;28;20240;-74
2022/11/30 02:03:11;;;;;;;0.03;0.03;;;3.50;99.90;;;;;;4962941;28;20081;-74
2022/11/30 02:05:38;;;;;;;21.60;17.02;;;3.50;99.90;;;;;;4979906;28;20177;-75
2022/11/30 02:08:06;;;;;;;0.10;0.10;;;3.50;99.90;;;;;;4962942;28;20031;-74
2022/11/30 02:10:35;;;;;;;21.92;15.40;;;3.50;99.90;;;;;;4981359;28;20029;-74
2022/11/30 02:13:38;;;;;;;0.10;0.10;;;1.30;99.90;;;;;;4979931;28;20025;-74
2022/11/30 02:16:16;;;;;;;0.00;0.00;;;3.60;99.90;;;;;;4979581;28;20028;-74
2022/11/30 02:19:08;;;;;;;0.63;0.63;;;3.60;99.90;;;;;;4964726;28;21524;-75
2022/11/30 02:21:56;;;;;;;0.10;0.10;;;3.60;99.90;;;;;;4941769;28;20343;-74
2022/11/30 02:24:43;;;;;;;5.75;5.55;;;6.80;99.90;;;;;;4980248;28;20050;-74
2022/11/30 02:27:43;;;;;;;0.03;0.03;;;3.60;99.90;;;;;;4979920;28;20231;-74
2022/11/30 02:30:19;;;;;;;0.13;0.13;;;3.60;99.90;;;;;;4983675;28;20518;-74
2022/11/30 02:33:09;;;;;;;0.20;0.20;;;3.50;99.90;;;;;;4980000;28;20113;-74
2022/11/30 02:35:39;;;;;;;0.10;0.10;;;3.50;99.90;;;;;;4981030;28;20030;-75
2022/11/30 02:38:05;;;;;;;0.10;0.10;;;3.50;99.90;;;;;;4980823;28;20027;-74
2022/11/30 02:40:31;;;;;;;0.43;0.43;;;3.40;99.90;;;;;;4964383;28;20351;-74
2022/11/30 02:43:00;;;;;;;0.10;0.10;;;3.30;99.90;;;;;;4980574;28;20106;-74
2022/11/30 02:45:37;;;;;;;2.83;2.72;;;3.40;99.90;;;;;;4981534;28;20030;-74
2022/11/30 02:48:11;;;;;;;2.47;2.38;;;3.50;99.90;;;;;;4982097;28;20097;-74
2022/11/30 02:50:44;;;;;;;3.75;3.55;;;3.50;99.90;;;;;;4967346;28;20267;-74
2022/11/30 02:53:10;;;;;;;0.10;0.10;;;3.50;99.90;;;;;;4984571;28;20113;-75
2022/11/30 02:55:40;;;;;;;0.20;0.20;;;3.50;99.90;;;;;;4985537;28;20534;-74
2022/11/30 02:58:06;;;;;;;0.00;0.00;;;;;;;;;;4983876;28;20055;-74
2022/11/30 03:00:32;;;;;;;0.05;0.05;;;3.50;99.90;;;;;;4984156;28;20046;-74
2022/11/30 03:02:58;;;;;;;6.40;6.13;;;4.00;99.90;;;;;;4984154;28;20105;-74
2022/11/30 03:05:24;;;;;;;1.30;1.30;;;3.60;99.90;;;;;;4983789;28;20018;-74
2022/11/30 03:07:49;;;;;;;0.00;0.00;;;3.50;99.90;;;;;;4984325;28;20047;-75
2022/11/30 03:10:15;;;;;;;0.10;0.10;;;3.60;99.90;;;;;;4985249;28;20463;-74
2022/11/30 03:12:41;;;;;;;0.20;0.20;;;3.60;99.90;;;;;;4983116;28;20022;-74
2022/11/30 03:15:07;;;;;;;0.00;0.00;;;3.60;99.90;;;;;;4983292;28;20088;-74
2022/11/30 03:17:34;;;;;;;0.10;0.10;;;3.50;99.90;;;;;;4965398;28;20038;-74
2022/11/30 03:19:59;;;;;;;0.10;0.10;;;3.60;99.90;;;;;;4983387;28;20545;-75
2022/11/30 03:22:25;;;;;;;4.55;4.35;;;3.60;99.90;;;;;;4983413;28;20117;-74
2022/11/30 03:24:51;;;;;;;3.70;3.53;;;3.60;99.90;;;;;;4982937;28;20026;-75
2022/11/30 03:27:17;;;;;;;0.00;0.00;;;3.60;99.90;;;;;;4982529;28;20073;-74
2022/11/30 03:29:42;;;;;;;0.10;0.10;;;3.50;99.90;;;;;;4982717;28;20046;-74
2022/11/30 03:32:08;;;;;;;27.48;25.63;;;3.50;99.90;;;;;;4982681;28;20018;-74
2022/11/30 03:34:34;;;;;;;0.52;0.52;;;3.50;99.90;;;;;;4982793;28;20053;-74
2022/11/30 03:37:00;;;;;;;0.10;0.10;;;3.50;99.90;;;;;;4982693;28;20030;-74
2022/11/30 03:39:26;;;;;;;0.10;0.10;;;3.50;99.90;;;;;;4983645;28;20030;-74
2022/11/30 03:41:52;;;;;;;0.08;0.08;;;3.50;99.90;;;;;;4985141;28;20420;-74
2022/11/30 03:44:19;;;;;;;0.10;0.10;;;3.50;99.90;;;;;;4983637;28;20502;-74
2022/11/30 03:46:45;;;;;;;0.10;0.10;;;4.70;99.90;;;;;;4983601;28;20019;-74
2022/11/30 03:49:10;;;;;;;6.22;6.03;;;3.50;99.90;;;;;;4983025;28;20028;-74
2022/11/30 03:51:37;;;;;;;0.73;0.73;;;3.60;99.90;;;;;;4983295;28;20039;-74
2022/11/30 03:54:03;;;;;;;0.03;0.03;;;3.50;99.90;;;;;;4982936;28;20101;-74
2022/11/30 03:56:29;;;;;;;0.43;0.43;;;3.60;99.90;;;;;;4982946;28;20066;-74
2022/11/30 03:58:55;;;;;;;0.80;0.80;;;3.40;99.90;;;;;;4984800;28;20019;-74
2022/11/30 04:01:22;;;;;;;0.00;0.00;;;3.60;99.90;;;;;;4983305;28;20030;-74
2022/11/30 04:03:49;;;;;;;27.58;26.02;;;3.60;99.90;;;;;;4965595;28;20498;-74
2022/11/30 04:06:16;;;;;;;0.10;0.10;;;3.50;99.90;;;;;;4982308;28;20533;-75
2022/11/30 04:08:42;;;;;;;0.00;0.00;;;3.60;99.90;;;;;;4983551;28;20031;-75
2022/11/30 04:11:09;;;;;;;0.10;0.10;;;3.60;99.90;;;;;;4982551;28;20676;-74
2022/11/30 04:13:37;;;;;;;0.65;0.65;;;3.50;99.90;;;;;;4982179;28;20113;-74
2022/11/30 04:16:04;;;;;;;2.47;2.38;;;3.50;99.90;;;;;;4982596;28;20061;-74
2022/11/30 04:18:31;;;;;;;0.10;0.10;;;3.40;99.90;;;;;;4965361;28;20335;-74
2022/11/30 04:20:58;;;;;;;0.40;0.40;;;3.40;99.90;;;;;;4982967;28;20026;-74
2022/11/30 04:23:27;;;;;;;0.00;0.00;;;3.40;99.90;;;;;;4982701;28;20072;-74
2022/11/30 04:25:53;;;;;;;0.10;0.10;;;3.50;99.90;;;;;;4982948;28;20466;-74
2022/11/30 04:28:19;;;;;;;0.73;0.73;;;3.40;99.90;;;;;;4983138;28;20037;-74
2022/11/30 04:30:46;;;;;;;0.10;0.10;;;3.40;99.90;;;;;;4964556;28;20030;-74
2022/11/30 04:33:13;;;;;;;0.00;0.00;;;3.40;99.90;;;;;;4983310;28;20531;-74
2022/11/30 04:35:52;;;;;;;0.00;0.00;;;3.40;99.90;;;;;;4964707;28;20141;-74
2022/11/30 04:38:17;;;;;;;0.47;0.47;;;3.40;99.90;;;;;;4982512;28;20029;-74
2022/11/30 04:40:43;;;;;;;0.10;0.10;;;3.50;99.90;;;;;;4982290;28;20224;-74
2022/11/30 04:43:11;;;;;;;0.10;0.10;;;3.40;99.90;;;;;;4964508;28;20444;-74
2022/11/30 04:45:37;;;;;;;0.32;0.32;;;3.40;99.90;;;;;;4982260;28;20115;-74
2022/11/30 04:48:04;;;;;;;1.38;1.33;;;3.50;99.90;;;;;;4983129;28;20026;-74
2022/11/30 04:50:30;;;;;;;8.68;8.02;;;3.50;99.90;;;;;;4986146;28;20073;-74
2022/11/30 04:52:56;;;;;;;0.00;0.00;;;3.40;99.90;;;;;;4991896;28;20033;-75
2022/11/30 04:55:22;;;;;;;0.00;0.00;;;3.50;99.90;;;;;;4991938;28;20038;-74
2022/11/30 04:57:48;;;;;;;0.00;0.00;;;3.50;99.90;;;;;;4972609;28;20031;-75
2022/11/30 05:00:16;;;;;;;0.03;0.03;;;3.50;99.90;;;;;;4988244;28;20081;-74
2022/11/30 05:02:42;;;;;;;0.00;0.00;;;3.60;99.90;;;;;;4985629;28;20221;-74
2022/11/30 05:05:08;;;;;;;0.10;0.10;;;3.60;99.90;;;;;;4984687;28;20026;-74
2022/11/30 05:07:34;;;;;;;0.00;0.00;;;3.70;99.90;;;;;;4981969;28;20058;-74
2022/11/30 05:10:00;;;;;;;4.90;2.80;;;;;;;;;;4947973;28;20035;-74
2022/11/30 05:12:26;;;;;;;0.10;0.10;;;3.60;99.90;;;;;;4964207;28;20038;-74
2022/11/30 05:14:52;;;;;;;0.05;0.05;;;0.40;99.90;;;;;;4963945;28;20042;-74
2022/11/30 05:17:17;;;;;;;0.05;0.05;;;3.60;99.90;;;;;;4981270;28;20034;-74
2022/11/30 05:19:43;;;;;;;1.90;1.75;;;3.60;99.90;;;;;;4981203;28;20034;-75
2022/11/30 05:22:09;;;;;;;0.10;0.10;;;3.60;99.90;;;;;;4980608;28;20046;-74
2022/11/30 05:24:35;;;;;;;0.05;0.05;;;3.60;99.90;;;;;;4981909;28;20117;-75
2022/11/30 05:27:01;;;;;;;35.33;15.60;;;3.50;99.90;;;;;;4963388;28;20053;-74
2022/11/30 05:29:26;;;;;;;6.68;6.38;;;3.50;99.90;;;;;;4981028;28;20065;-74
2022/11/30 05:31:52;;;;;;;42.88;28.67;;;3.50;99.90;;;;;;4980755;28;20517;-75
2022/11/30 05:34:18;;;;;;;4.03;3.83;;;3.50;99.90;;;;;;4980709;28;20042;-74
2022/11/30 05:36:44;;;;;;;0.10;0.10;;;3.50;99.90;;;;;;4963236;28;20129;-74
2022/11/30 05:39:10;;;;;;;0.68;0.68;;;3.50;99.90;;;;;;4964309;28;20038;-74
2022/11/30 05:41:36;;;;;;;0.10;0.10;;;3.60;99.90;;;;;;4980746;28;20100;-74
2022/11/30 05:44:01;;;;;;;0.10;0.10;;;4.30;99.90;;;;;;4981293;28;20034;-74
2022/11/30 05:46:27;;;;;;;0.08;0.08;;;3.60;99.90;;;;;;4981205;28;20334;-74
2022/11/30 05:48:53;;;;;;;0.95;0.95;;;3.60;99.90;;;;;;4981243;28;20018;-74
2022/11/30 05:51:20;;;;;;;0.10;0.10;;;3.60;99.90;;;;;;4981492;28;20030;-74
2022/11/30 05:53:46;;;;;;;0.10;0.10;;;3.50;99.90;;;;;;4981569;28;20061;-74
2022/11/30 05:56:17;;;;;;;1.08;1.08;;;3.50;99.90;;;;;;4980353;28;20097;-74
2022/11/30 05:58:43;;;;;;;0.00;0.00;;;3.40;99.90;;;;;;4980593;28;20687;-74
2022/11/30 06:01:17;;;;;;;0.00;0.00;;;3.50;99.90;;;;;;4980510;28;20084;-74
2022/11/30 06:03:43;;;;;;;0.10;0.10;;;3.40;99.90;;;;;;4980790;28;20022;-74
2022/11/30 06:06:09;;;;;;;0.65;0.65;;;3.50;99.90;;;;;;4981062;28;20050;-75
2022/11/30 06:08:35;;;;;;;3.60;3.50;;;3.40;99.90;;;;;;4980781;28;20026;-74
2022/11/30 06:11:01;;;;;;;0.08;0.08;;;3.50;99.90;;;;;;4981229;28;20031;-74
2022/11/30 06:13:26;;;;;;;0.00;0.00;;;3.50;99.90;;;;;;4980240;28;20081;-74
2022/11/30 06:15:52;;;;;;;0.10;0.10;;;3.50;99.90;;;;;;4980294;28;20065;-74
2022/11/30 06:18:18;;;;;;;20.33;19.45;;;1.70;99.90;;;;;;4980202;28;20033;-74
2022/11/30 06:20:43;;;;;;;0.30;0.30;;;3.50;99.90;;;;;;4980605;28;20239;-74
2022/11/30 06:23:09;;;;;;;0.10;0.10;;;3.50;99.90;;;;;;4980297;28;20144;-74
2022/11/30 06:25:35;;;;;;;0.22;0.22;;;3.50;99.90;;;;;;4982063;28;20054;-74
2022/11/30 06:28:01;;;;;;;0.10;0.10;;;3.60;99.90;;;;;;4962954;28;20113;-74
2022/11/30 06:30:26;;;;;;;0.10;0.10;;;3.50;99.90;;;;;;4980307;28;20057;-74
2022/11/30 06:32:52;;;;;;;0.03;0.03;;;3.60;99.90;;;;;;4981754;28;20030;-74
2022/11/30 06:35:18;;;;;;;0.10;0.10;;;3.50;99.90;;;;;;4981594;28;20101;-74
2022/11/30 06:37:44;;;;;;;0.20;0.20;;;3.60;99.90;;;;;;4980216;28;20417;-74
2022/11/30 06:40:11;;;;;;;3.05;2.95;;;3.60;99.90;;;;;;4980687;28;20077;-74
2022/11/30 06:42:38;;;;;;;0.00;0.00;;;3.60;99.90;;;;;;4962273;28;20093;-74
2022/11/30 06:45:06;;;;;;;17.20;16.17;;;3.30;99.90;;;;;;4980242;28;20022;-74
2022/11/30 06:47:32;;;;;;;0.10;0.10;;;3.50;99.90;;;;;;4979630;28;20548;-74
2022/11/30 06:49:58;;;;;;;0.20;0.20;;;3.50;99.90;;;;;;4979384;28;20042;-74
2022/11/30 06:52:24;;;;;;;0.10;0.10;;;3.60;99.90;;;;;;4979587;28;20019;-74
2022/11/30 06:54:50;;;;;;;0.10;0.10;;;3.50;99.90;;;;;;4979595;28;20219;-74
2022/11/30 06:57:16;;;;;;;0.00;0.00;;;3.50;99.90;;;;;;4962117;28;20328;-75
2022/11/30 06:59:42;;;;;;;0.10;0.10;;;3.50;99.90;;;;;;4961365;28;20038;-74
2022/11/30 07:02:12;;;;;;;0.10;0.10;;;3.50;99.90;;;;;;4961632;28;20035;-75
2022/11/30 07:04:38;;;;;;;0.10;0.10;;;3.50;99.90;;;;;;4979790;28;20123;-75
2022/11/30 07:07:04;;;;;;;0.10;0.10;;;3.50;99.90;;;;;;4979627;28;20122;-74
2022/11/30 07:09:31;;;;;;;0.45;0.45;;;4.40;99.90;;;;;;4979737;28;20113;-74
2022/11/30 07:11:57;;;;;;;0.13;0.13;;;;;;;;;;4979840;28;20029;-75
2022/11/30 07:14:24;;;;;;;0.10;0.10;;;3.50;99.90;;;;;;4979240;28;20027;-74
2022/11/30 07:16:50;;;;;;;2.05;1.95;;;3.50;99.90;;;;;;4978808;28;20101;-74
2022/11/30 07:19:17;;;;;;;11.80;7.63;;;3.50;99.90;;;;;;4979125;28;20568;-74
2022/11/30 07:21:43;;;;;;;14.73;13.90;;;4.10;99.90;;;;;;4978994;28;20354;-74
2022/11/30 07:27:05;;;;;;;0.10;0.10;;;3.50;99.90;;;;;;4956032;28;20437;-74
2022/11/30 07:29:31;;;;;;;1.33;1.33;;;3.50;99.90;;;;;;4962151;28;20019;-74
2022/11/30 07:31:57;;;;;;;36.85;24.33;;;3.50;99.90;;;;;;4978664;28;20029;-75
2022/11/30 07:34:23;;;;;;;22.15;20.27;;;3.60;99.90;;;;;;4980899;28;20382;-74
2022/11/30 07:36:49;;;;;;;0.15;0.15;;;3.70;99.90;;;;;;4982998;28;20283;-75
2022/11/30 07:39:14;;;;;;;7.22;5.00;;;3.70;99.90;;;;;;4983154;28;20042;-74
2022/11/30 07:41:41;;;;;;;0.10;0.10;;;3.70;99.90;;;;;;4983157;28;20506;-74
2022/11/30 07:44:08;;;;;;;0.10;0.10;;;3.80;99.90;;;;;;4984235;28;20022;-74
2022/11/30 07:46:35;;;;;;;0.10;0.10;;;3.80;99.90;;;;;;4985578;28;20030;-75
2022/11/30 07:49:02;;;;;;;2.03;1.92;;;3.90;99.90;;;;;;4965974;28;20347;-74
2022/11/30 07:51:28;;;;;;;0.15;0.15;;;3.90;99.90;;;;;;4982784;28;20018;-75
2022/11/30 07:53:57;;;;;;;0.10;0.10;;;4.00;99.90;;;;;;4982463;28;20033;-74
2022/11/30 07:56:24;;;;;;;0.10;0.10;;;4.00;99.90;;;;;;4982421;28;20038;-74
2022/11/30 07:58:52;;;;;;;1.65;1.65;;;4.00;99.90;;;;;;4966306;28;20030;-75
2022/11/30 08:01:21;;;;;;;0.10;0.10;;;4.10;99.90;;;;;;4985539;28;20347;-75
2022/11/30 08:03:48;;;;;;;36.88;35.05;;;4.00;99.90;;;;;;4990661;28;20023;-75
2022/11/30 08:06:18;;;;;;;0.10;0.10;;;4.10;99.90;;;;;;4974813;28;20057;-75
2022/11/30 08:08:45;;;;;;;2.55;2.35;;;4.10;99.90;;;;;;4992080;28;20023;-75
2022/11/30 08:11:13;;;;;;;3.92;3.63;;;4.20;99.90;;;;;;4992512;28;20086;-74
2022/11/30 08:13:39;;;;;;;9.15;8.63;;;4.30;99.90;;;;;;4984238;28;20050;-76
2022/11/30 08:16:07;;;;;;;0.10;0.10;;;4.20;99.90;;;;;;4983025;28;20028;-74
2022/11/30 08:18:33;;;;;;;0.10;0.10;;;5.10;99.90;;;;;;4985025;28;20026;-75
2022/11/30 08:21:01;;;;;;;0.00;0.00;;;4.20;99.90;;;;;;4987636;28;20101;-74
2022/11/30 08:23:31;;;;;;;0.90;0.90;;;4.30;99.90;;;;;;4987515;28;20078;-74
2022/11/30 08:26:05;;;;;;;0.10;0.10;;;4.30;99.90;;;;;;4983333;28;20053;-74
2022/11/30 08:28:34;;;;;;;0.00;0.00;;;4.30;99.90;;;;;;4965119;28;20033;-74
2022/11/30 08:31:02;;;;;;;0.00;0.00;;;4.40;99.90;;;;;;4982288;28;20069;-75
2022/11/30 08:33:30;;;;;;;1.45;1.38;;;4.40;99.90;;;;;;4981802;28;20027;-74
2022/11/30 08:36:15;;;;;;;0.40;0.40;;;4.40;99.90;;;;;;4985765;28;20038;-74
2022/11/30 08:38:42;;;;;;;1.38;1.33;;;4.50;99.90;;;;;;4983388;28;20053;-74
2022/11/30 08:41:09;;;;;;;0.08;0.08;;;4.50;99.90;;;;;;4982220;28;20077;-74
2022/11/30 08:43:35;;;;;;;0.10;0.10;;;4.50;99.90;;;;;;4982090;28;20510;-74
2022/11/30 08:46:03;;;;;;;0.60;0.60;;;4.50;99.90;;;;;;4981200;28;20026;-74
2022/11/30 08:48:29;;;;;;;0.22;0.22;;;4.60;99.90;;;;;;4964051;28;20113;-74
2022/11/30 08:51:00;;;;;;;0.00;0.00;;;4.60;99.90;;;;;;4963347;28;20669;-74
2022/11/30 08:53:25;;;;;;;4.60;4.43;;;4.60;99.90;;;;;;4981274;28;20025;-74
2022/11/30 08:56:09;;;;;;;1.10;1.08;;;4.70;99.90;;;;;;4963837;28;20433;-74
2022/11/30 08:58:37;;;;;;;84.07;76.47;;;4.70;99.90;;;;;;4981429;28;20740;-74
2022/11/30 09:01:12;;;;;;;0.77;0.77;;;4.70;99.90;;;;;;4965395;28;20517;-74
2022/11/30 09:03:39;;;;;;;0.00;0.00;;;4.60;99.90;;;;;;4981601;28;20045;-74
2022/11/30 09:06:14;;;;;;;0.15;0.15;;;4.60;99.90;;;;;;4984148;28;20043;-73
2022/11/30 09:08:42;;;;;;;2.28;2.17;;;4.70;99.90;;;;;;4969990;28;20628;-74
2022/11/30 09:11:17;;;;;;;0.35;0.35;;;4.60;99.90;;;;;;4984410;28;20022;-75
2022/11/30 09:13:44;;;;;;;3.50;3.13;;;4.70;99.90;;;;;;4983636;28;20689;-73
2022/11/30 09:16:10;;;;;;;0.65;0.65;;;4.70;99.90;;;;;;4984134;28;20054;-74
2022/11/30 09:18:37;;;;;;;1.08;1.08;;;4.70;99.90;;;;;;4982668;28;20035;-74
2022/11/30 09:21:05;;;;;;;0.10;0.10;;;4.70;99.90;;;;;;4982512;28;20045;-74
2022/11/30 09:23:31;;;;;;;0.10;0.10;;;;;;;;;;4982329;28;20022;-74
2022/11/30 09:26:03;;;;;;;1.00;1.00;;;4.70;99.90;;;;;;4982235;28;20019;-74
2022/11/30 09:28:29;;;;;;;0.20;0.20;;;4.70;99.90;;;;;;4981818;28;20035;-74
2022/11/30 09:31:12;;;;;;;1.58;1.58;;;4.60;99.90;;;;;;4963947;28;20025;-74
2022/11/30 09:33:38;;;;;;;0.10;0.10;;;4.70;99.90;;;;;;4980539;28;20034;-74
2022/11/30 09:36:15;;;;;;;1.50;1.48;;;4.70;99.90;;;;;;4980079;28;20069;-74
2022/11/30 09:38:41;;;;;;;0.10;0.10;;;4.70;99.90;;;;;;4980424;28;20103;-75
2022/11/30 09:41:19;;;;;;;0.00;0.00;;;4.70;99.90;;;;;;4981291;28;20042;-74
2022/11/30 09:43:59;;;;;;;0.10;0.10;;;4.80;99.90;;;;;;4981262;28;20034;-74
2022/11/30 09:46:35;;;;;;;2.00;1.98;;;4.70;99.90;;;;;;4981009;28;20022;-74
2022/11/30 09:49:10;;;;;;;9.07;5.55;;;4.70;99.90;;;;;;4980371;28;20022;-74
2022/11/30 09:51:46;;;;;;;0.10;0.10;;;4.90;99.90;;;;;;4981330;28;20683;-74
2022/11/30 09:54:17;;;;;;;4.10;3.95;;;4.90;99.90;;;;;;4980742;28;20660;-74
2022/11/30 09:56:46;;;;;;;2.33;2.28;;;5.00;99.90;;;;;;4980922;28;20034;-74
2022/11/30 09:59:28;;;;;;;0.20;0.20;;;4.50;99.90;;;;;;4981188;28;20154;-74
2022/11/30 10:01:56;;;;;;;0.10;0.10;;;4.40;99.90;;;;;;4980220;28;20034;-75
2022/11/30 10:04:27;;;;;;;0.15;0.15;;;5.00;99.90;;;;;;4981069;28;20137;-74
2022/11/30 10:07:05;;;;;;;0.10;0.10;;;5.10;99.90;;;;;;4979939;28;20074;-74
2022/11/30 10:09:46;;;;;;;0.10;0.10;;;5.20;99.90;;;;;;4979975;28;20014;-74
2022/11/30 10:12:32;;;;;;;7.22;6.70;;;5.20;99.90;;;;;;4980225;28;20030;-74
2022/11/30 10:15:07;;;;;;;6.00;5.78;;;5.20;99.90;;;;;;4962879;28;20697;-74
2022/11/30 10:17:33;;;;;;;0.00;0.00;;;5.10;99.90;;;;;;4980663;28;20457;-74
2022/11/30 10:20:14;;;;;;;0.05;0.05;;;5.10;99.90;;;;;;4979967;28;20022;-75
2022/11/30 10:22:58;;;;;;;7.53;7.22;;;5.00;99.90;;;;;;4981632;28;20041;-74
2022/11/30 10:25:33;;;;;;;0.05;0.05;;;5.00;99.90;;;;;;4964149;28;20025;-74
2022/11/30 10:28:24;;;;;;;8.07;7.68;;;5.10;99.90;;;;;;4979831;28;20049;-74
2022/11/30 10:30:50;;;;;;;0.20;0.20;;;5.10;99.90;;;;;;4962439;28;20555;-73
2022/11/30 10:33:25;;;;;;;0.32;0.32;;;5.00;99.90;;;;;;4985603;28;20026;-74
2022/11/30 10:35:55;;;;;;;1.30;1.27;;;5.10;99.90;;;;;;4984490;28;20275;-76
2022/11/30 10:38:28;;;;;;;37.90;36.22;;;5.10;99.90;;;;;;4967276;28;20027;-75
2022/11/30 10:41:10;;;;;;;9.65;8.90;;;5.10;99.90;;;;;;4982372;28;20022;-75
2022/11/30 10:43:48;;;;;;;0.55;0.55;;;5.10;99.90;;;;;;4981503;28;20033;-74
2022/11/30 10:46:25;;;;;;;5.25;5.05;;;5.20;99.90;;;;;;4980299;28;20117;-74
2022/11/30 10:49:17;;;;;;;0.10;0.10;;;5.30;99.90;;;;;;4979386;28;20097;-74
2022/11/30 10:51:46;;;;;;;0.08;0.08;;;5.30;99.90;;;;;;4975386;28;20212;-74
2022/11/30 10:54:18;;;;;;;0.10;0.10;;;5.30;99.90;;;;;;4979983;28;20046;-75
2022/11/30 10:56:44;;;;;;;1.85;1.85;;;5.40;99.90;;;;;;4980224;28;20042;-74
2022/11/30 10:59:28;;;;;;;0.13;0.13;;;5.40;99.90;;;;;;4979328;28;20014;-74
2022/11/30 11:01:54;;;;;;;0.10;0.10;;;5.50;99.90;;;;;;4979568;28;20030;-75
2022/11/30 11:04:26;;;;;;;0.10;0.10;;;5.50;99.90;;;;;;4979879;28;20243;-74
2022/11/30 11:07:08;;;;;;;0.20;0.20;;;4.60;99.90;;;;;;4979768;28;20248;-74
2022/11/30 11:09:51;;;;;;;0.17;0.17;;;5.50;99.90;;;;;;4983225;28;20022;-74
2022/11/30 11:12:24;;;;;;;0.10;0.10;;;5.60;99.90;;;;;;4986433;28;20026;-75
2022/11/30 11:15:18;;;;;;;11.13;10.43;;;5.60;99.90;;;;;;4995419;28;20054;-75
2022/11/30 11:17:44;;;;;;;0.10;0.10;;;5.60;99.90;;;;;;4979776;28;20107;-74
2022/11/30 11:20:32;;;;;;;0.10;0.10;;;5.70;99.90;;;;;;4990891;28;20066;-76
2022/11/30 11:22:58;;;;;;;0.98;0.95;;;5.60;99.90;;;;;;4991308;28;20308;-76
2022/11/30 11:25:31;;;;;;;0.47;0.47;;;5.60;99.90;;;;;;4991417;28;20096;-76
2022/11/30 11:28:11;;;;;;;1.30;1.30;;;5.60;99.90;;;;;;4987460;28;20450;-74
2022/11/30 11:30:37;;;;;;;0.20;0.20;;;5.60;99.90;;;;;;4972963;28;20026;-74
2022/11/30 11:33:14;;;;;;;0.10;0.10;;;5.60;99.90;;;;;;4984164;28;20033;-74
2022/11/30 11:35:50;;;;;;;0.10;0.10;;;5.60;99.90;;;;;;4984054;28;20578;-73
2022/11/30 11:38:29;;;;;;;0.10;0.10;;;5.40;99.90;;;;;;4983350;28;20031;-74
2022/11/30 11:41:06;;;;;;;0.10;0.10;;;5.40;99.90;;;;;;4982752;28;20022;-75
2022/11/30 11:43:53;;;;;;;4.35;4.18;;;5.50;99.90;;;;;;4983642;28;20019;-74
2022/11/30 11:46:19;;;;;;;0.10;0.10;;;5.50;99.90;;;;;;4982575;28;20023;-75
2022/11/30 11:48:55;;;;;;;1.00;1.00;;;5.50;99.90;;;;;;4982643;28;20038;-74
2022/11/30 11:51:32;;;;;;;0.10;0.10;;;5.50;99.90;;;;;;4982926;28;20022;-74
2022/11/30 11:54:25;;;;;;;26.15;24.95;;;5.50;99.90;;;;;;4983989;28;20022;-74
2022/11/30 11:56:53;;;;;;;0.10;0.10;;;5.50;99.90;;;;;;4887906;29;20048;-74
2022/11/30 11:59:44;;;;;;;0.00;0.00;;;5.40;99.90;;;;;;4887433;29;20072;-75
2022/11/30 12:03:00;;;;;;;0.75;0.75;;;5.40;99.90;;;;;;4886365;29;20052;-74
2022/11/30 12:05:35;;;;;;;3.13;3.03;;;5.40;99.90;;;;;;4848272;29;20041;-74
2022/11/30 12:08:43;;;;;;;0.10;0.10;;;5.40;99.90;;;;;;4848033;29;20090;-74
2022/11/30 12:11:13;;;;;;;0.10;0.10;;;5.40;99.90;;;;;;4812213;29;20136;-74
2022/11/30 12:13:42;;;;;;;0.20;0.20;;;5.40;99.90;;;;;;4811972;29;20177;-75
2022/11/30 12:16:28;;;;;;;0.20;0.20;;;5.40;99.90;;;;;;4811717;29;20047;-75
2022/11/30 12:19:16;;;;;;;0.10;0.10;;;5.50;99.90;;;;;;4812647;29;20063;-75
2022/11/30 12:21:51;;;;;;;0.10;0.10;;;5.50;99.90;;;;;;4810896;29;20817;-75
2022/11/30 12:24:43;;;;;;;0.35;0.35;;;5.50;99.90;;;;;;4811935;29;20126;-75
2022/11/30 12:27:28;;;;;;;0.10;0.10;;;8.60;99.90;;;;;;4811560;29;20030;-75
2022/11/30 12:30:08;;;;;;;0.00;0.00;;;5.50;99.90;;;;;;4811690;29;20037;-75
2022/11/30 12:32:55;;;;;;;0.03;0.03;;;5.40;99.90;;;;;;4810879;29;20163;-75
2022/11/30 12:36:04;;;;;;;1.55;1.55;;;5.50;99.90;;;;;;4872308;29;20562;-75
2022/11/30 12:38:30;;;;;;;2.92;2.83;;;5.40;99.90;;;;;;4848017;29;20065;-74
2022/11/30 12:41:04;;;;;;;15.18;14.43;;;5.40;99.90;;;;;;4847392;29;20021;-75
2022/11/30 12:43:45;;;;;;;0.55;0.55;;;5.20;99.90;;;;;;4832745;29;20044;-75
2022/11/30 12:46:31;;;;;;;0.10;0.10;;;5.20;99.90;;;;;;4886945;29;20043;-75
2022/11/30 12:49:08;;;;;;;0.95;0.95;;;5.20;99.90;;;;;;4889414;29;20092;-75
2022/11/30 12:52:06;;;;;;;13.73;13.25;;;5.20;99.90;;;;;;4909331;29;20024;-75
2022/11/30 12:55:00;;;;;;;19.75;16.75;;;5.20;99.90;;;;;;4896759;29;20028;-75
2022/11/30 12:58:04;;;;;;;0.30;0.30;;;5.20;99.90;;;;;;4896325;29;20039;-75
2022/11/30 13:00:48;;;;;;;2.45;2.35;;;5.30;99.90;;;;;;4872953;29;20157;-75
2022/11/30 13:03:34;;;;;;;0.20;0.20;;;5.30;99.90;;;;;;4873746;29;20041;-75
2022/11/30 13:06:08;;;;;;;0.10;0.10;;;4.70;99.90;;;;;;4874428;29;20078;-75
2022/11/30 13:08:54;;;;;;;0.10;0.10;;;5.40;99.90;;;;;;4874041;29;20108;-75
2022/11/30 13:11:40;;;;;;;0.10;0.10;;;5.60;99.90;;;;;;4873482;29;20037;-76
2022/11/30 13:14:20;;;;;;;1.42;1.42;;;5.40;99.90;;;;;;4882290;29;20133;-76
2022/11/30 13:16:49;;;;;;;0.13;0.13;;;5.40;99.90;;;;;;4948005;29;20122;-76
2022/11/30 13:19:40;;;;;;;0.30;0.30;;;5.40;99.90;;;;;;4948131;29;20089;-76